createdAt,value
2018-03-22T00:01:46.267Z,78.20
2018-03-22T00:04:15.831Z,78.50
2018-03-22T00:06:45.646Z,78.40
2018-03-22T00:09:16.445Z,78.90
2018-03-22T00:11:45.708Z,78.90
2018-03-22T00:14:15.448Z,79.10
2018-03-22T00:16:45.519Z,79.30
2018-03-22T00:19:15.060Z,79.30
2018-03-22T00:21:44.984Z,79.50
2018-03-22T00:24:14.711Z,79.40
2018-03-22T00:26:43.855Z,79.60
2018-03-22T00:29:14.216Z,79.60
2018-03-22T00:31:44.991Z,79.50
2018-03-22T00:34:15.415Z,79.60
2018-03-22T00:36:44.879Z,79.50
2018-03-22T00:39:14.590Z,79.60
2018-03-22T00:41:44.238Z,79.70
2018-03-22T00:44:14.912Z,79.70
2018-03-22T00:46:44.317Z,79.60
2018-03-22T00:49:14.061Z,79.50
2018-03-22T00:51:42.815Z,79.50
2018-03-22T00:54:12.136Z,79.50
2018-03-22T00:56:41.055Z,79.50
2018-03-22T00:59:09.876Z,79.30
2018-03-22T01:01:39.019Z,79.40
2018-03-22T01:04:07.985Z,79.20
2018-03-22T01:06:36.919Z,79.10
2018-03-22T01:09:06.296Z,79.10
2018-03-22T01:11:35.430Z,79.10
2018-03-22T01:14:05.561Z,78.80
2018-03-22T01:16:35.216Z,78.80
2018-03-22T01:19:04.816Z,78.80
2018-03-22T01:21:33.715Z,78.80
2018-03-22T01:24:02.533Z,78.80
2018-03-22T01:26:31.974Z,78.90
2018-03-22T01:29:00.693Z,78.80
2018-03-22T01:31:29.527Z,78.70
2018-03-22T01:33:59.135Z,78.80
2018-03-22T01:36:28.003Z,78.80
2018-03-22T01:38:57.385Z,78.50
2018-03-22T01:41:26.381Z,78.50
2018-03-22T01:43:54.852Z,78.30
2018-03-22T01:46:24.577Z,78.30
2018-03-22T01:48:53.043Z,78.50
2018-03-22T01:51:21.718Z,78.50
2018-03-22T01:53:50.613Z,78.50
2018-03-22T01:56:19.114Z,78.50
2018-03-22T01:58:47.480Z,78.70
2018-03-22T02:01:17.702Z,78.90
2018-03-22T02:03:46.252Z,78.90
2018-03-22T02:06:15.348Z,79.00
2018-03-22T02:08:44.140Z,79.20
2018-03-22T02:11:13.152Z,79.40
2018-03-22T02:13:41.632Z,79.60
2018-03-22T02:16:10.531Z,79.70
2018-03-22T02:18:39.316Z,79.70
2018-03-22T02:21:08.244Z,79.80
2018-03-22T02:23:37.205Z,80.00
2018-03-22T02:26:05.742Z,80.00
2018-03-22T02:28:33.858Z,80.10
2018-03-22T02:31:02.363Z,80.20
2018-03-22T02:33:30.867Z,80.40
2018-03-22T02:36:00.406Z,80.50
2018-03-22T02:38:29.499Z,80.60
2018-03-22T02:40:58.112Z,80.70
2018-03-22T02:43:27.124Z,80.60
2018-03-22T02:45:56.674Z,80.80
2018-03-22T02:48:26.024Z,80.80
2018-03-22T02:50:54.656Z,80.60
2018-03-22T02:53:23.145Z,80.80
2018-03-22T02:55:51.694Z,80.80
2018-03-22T02:58:20.216Z,80.50
2018-03-22T03:00:48.640Z,80.40
2018-03-22T03:03:17.384Z,80.50
2018-03-22T03:05:45.563Z,80.50
2018-03-22T03:08:14.000Z,80.70
2018-03-22T03:10:42.557Z,80.60
2018-03-22T03:13:11.089Z,80.40
2018-03-22T03:15:39.584Z,80.30
2018-03-22T03:18:08.102Z,80.40
2018-03-22T03:20:37.260Z,80.40
2018-03-22T03:23:05.592Z,80.40
2018-03-22T03:25:34.596Z,80.30
2018-03-22T03:28:03.007Z,80.30
2018-03-22T03:30:31.589Z,79.90
2018-03-22T03:32:59.844Z,80.10
2018-03-22T03:35:28.656Z,80.00
2018-03-22T03:37:59.186Z,80.20
2018-03-22T03:40:27.677Z,80.90
2018-03-22T03:43:03.762Z,80.40
2018-03-22T03:45:32.811Z,80.50
2018-03-22T03:48:01.449Z,80.40
2018-03-22T03:50:30.733Z,80.50
2018-03-22T03:52:59.624Z,80.80
2018-03-22T03:55:28.445Z,80.50
2018-03-22T03:57:56.853Z,81.10
2018-03-22T04:00:25.281Z,80.70
2018-03-22T04:02:53.790Z,80.50
2018-03-22T04:05:21.956Z,80.70
2018-03-22T04:07:50.520Z,80.60
2018-03-22T04:10:19.981Z,80.70
2018-03-22T04:12:49.190Z,80.70
2018-03-22T04:15:17.727Z,80.50
2018-03-22T04:17:46.003Z,80.70
2018-03-22T04:20:15.745Z,80.60
2018-03-22T04:22:44.139Z,80.70
2018-03-22T04:25:13.311Z,80.80
2018-03-22T04:27:41.769Z,80.60
2018-03-22T04:30:10.733Z,80.60
2018-03-22T04:32:39.294Z,80.60
2018-03-22T04:35:07.826Z,80.60
2018-03-22T04:37:36.196Z,80.80
2018-03-22T04:40:05.421Z,81.20
2018-03-22T04:42:33.787Z,80.80
2018-03-22T04:45:02.208Z,80.90
2018-03-22T04:47:31.672Z,80.80
2018-03-22T04:50:00.140Z,80.70
2018-03-22T04:52:28.844Z,80.90
2018-03-22T04:54:57.205Z,81.00
2018-03-22T04:57:25.340Z,81.10
2018-03-22T04:59:54.612Z,81.40
2018-03-22T05:02:23.436Z,81.40
2018-03-22T05:04:52.619Z,81.70
2018-03-22T05:07:22.577Z,81.00
2018-03-22T05:09:51.300Z,81.50
2018-03-22T05:12:20.143Z,81.60
2018-03-22T05:14:49.108Z,81.60
2018-03-22T05:17:18.313Z,82.30
2018-03-22T05:19:47.046Z,82.20
2018-03-22T05:22:15.551Z,82.30
2018-03-22T05:24:44.688Z,82.30
2018-03-22T05:27:14.567Z,82.60
2018-03-22T05:29:43.246Z,82.60
2018-03-22T05:32:11.964Z,82.60
2018-03-22T05:34:41.600Z,83.00
2018-03-22T05:37:12.152Z,83.10
2018-03-22T05:39:41.508Z,83.00
2018-03-22T05:42:10.777Z,83.10
2018-03-22T05:44:39.282Z,83.00
2018-03-22T05:47:08.572Z,83.20
2018-03-22T05:49:38.071Z,83.20
2018-03-22T05:52:07.231Z,83.20
2018-03-22T05:54:36.248Z,83.20
2018-03-22T05:57:07.080Z,83.30
2018-03-22T05:59:37.820Z,83.30
2018-03-22T06:02:08.350Z,83.40
2018-03-22T06:04:37.642Z,83.40
2018-03-22T06:07:07.766Z,83.30
2018-03-22T06:09:36.575Z,83.50
2018-03-22T06:12:06.168Z,83.70
2018-03-22T06:14:35.683Z,83.60
2018-03-22T06:17:06.735Z,84.80
2018-03-22T06:19:36.161Z,84.90
2018-03-22T06:22:05.400Z,84.90
2018-03-22T06:24:34.077Z,85.30
2018-03-22T06:27:03.120Z,85.40
2018-03-22T06:29:32.075Z,86.00
2018-03-22T06:32:01.187Z,86.50
2018-03-22T06:34:31.101Z,86.60
2018-03-22T06:37:01.737Z,87.00
2018-03-22T06:39:31.236Z,86.90
2018-03-22T06:42:02.044Z,87.10
2018-03-22T06:44:32.857Z,87.10
2018-03-22T06:47:02.670Z,87.40
2018-03-22T06:49:31.695Z,86.80
2018-03-22T06:52:01.685Z,87.00
2018-03-22T06:54:31.060Z,86.70
2018-03-22T06:57:00.037Z,87.10
2018-03-22T06:59:30.688Z,86.50
2018-03-22T07:01:59.781Z,86.50
2018-03-22T07:04:30.378Z,87.10
2018-03-22T07:07:00.501Z,87.80
2018-03-22T07:09:29.383Z,88.20
2018-03-22T07:11:59.491Z,89.60
2018-03-22T07:14:28.828Z,89.50
2018-03-22T07:16:58.660Z,90.10
2018-03-22T07:19:28.433Z,90.00
2018-03-22T07:21:58.128Z,90.30
2018-03-22T07:24:27.856Z,90.30
2018-03-22T07:26:57.585Z,90.20
2018-03-22T07:29:27.293Z,89.90
2018-03-22T07:31:57.927Z,90.10
2018-03-22T07:34:27.225Z,90.00
2018-03-22T07:36:57.604Z,89.90
2018-03-22T07:39:27.710Z,89.40
2018-03-22T07:41:56.572Z,88.50
2018-03-22T07:44:30.134Z,88.70
2018-03-22T07:47:00.494Z,88.40
2018-03-22T07:49:30.053Z,88.20
2018-03-22T07:52:00.570Z,88.50
2018-03-22T07:54:30.198Z,88.40
2018-03-22T08:00:21.031Z,88.00
2018-03-22T08:02:51.238Z,87.90
2018-03-22T08:05:20.405Z,87.90
2018-03-22T08:07:49.758Z,87.30
2018-03-22T08:10:18.908Z,87.00
2018-03-22T08:12:48.192Z,86.50
2018-03-22T08:15:17.501Z,87.00
2018-03-22T08:17:47.150Z,86.20
2018-03-22T08:20:16.961Z,86.20
2018-03-22T08:22:46.392Z,86.40
2018-03-22T08:25:15.458Z,85.60
2018-03-22T08:27:45.517Z,85.00
2018-03-22T08:30:14.747Z,84.70
2018-03-22T08:32:44.081Z,84.70
2018-03-22T08:35:13.367Z,84.70
2018-03-22T08:37:42.706Z,84.40
2018-03-22T08:40:11.913Z,84.60
2018-03-22T08:42:42.200Z,84.70
2018-03-22T08:45:11.426Z,85.00
2018-03-22T08:47:42.934Z,86.00
2018-03-22T08:50:12.755Z,85.60
2018-03-22T08:52:41.952Z,86.30
2018-03-22T08:55:11.871Z,86.10
2018-03-22T08:57:41.935Z,88.20
2018-03-22T09:00:12.109Z,88.10
2018-03-22T09:02:41.247Z,89.40
2018-03-22T09:05:10.484Z,90.10
2018-03-22T09:07:40.729Z,90.20
2018-03-22T09:10:10.213Z,90.60
2018-03-22T09:12:39.398Z,91.20
2018-03-22T09:15:08.645Z,91.30
2018-03-22T09:17:37.968Z,91.80
2018-03-22T09:20:08.782Z,91.80
2018-03-22T09:22:37.959Z,92.20
2018-03-22T09:25:07.782Z,93.10
2018-03-22T09:27:36.890Z,93.10
2018-03-22T09:30:07.983Z,93.30
2018-03-22T09:32:39.544Z,94.00
2018-03-22T09:35:09.647Z,94.00
2018-03-22T09:37:59.578Z,94.20
2018-03-22T09:40:28.342Z,94.20
2018-03-22T09:42:57.826Z,94.50
2018-03-22T09:45:28.663Z,94.50
2018-03-22T09:47:59.546Z,94.70
2018-03-22T09:50:28.899Z,94.70
2018-03-22T09:52:58.930Z,94.80
2018-03-22T09:55:27.929Z,94.60
2018-03-22T09:57:57.198Z,94.60
2018-03-22T10:00:27.366Z,94.30
2018-03-22T10:02:57.040Z,94.20
2018-03-22T10:05:27.027Z,93.90
2018-03-22T10:07:56.304Z,93.90
2018-03-22T10:10:25.370Z,93.80
2018-03-22T10:12:54.617Z,93.80
2018-03-22T10:15:23.599Z,93.80
2018-03-22T10:17:52.798Z,93.50
2018-03-22T10:20:21.838Z,93.60
2018-03-22T10:22:52.281Z,93.70
2018-03-22T10:25:21.397Z,93.70
2018-03-22T10:27:50.642Z,94.10
2018-03-22T10:30:19.867Z,94.20
2018-03-22T10:32:49.032Z,94.00
2018-03-22T10:35:18.297Z,94.00
2018-03-22T10:37:47.910Z,94.40
2018-03-22T10:40:17.057Z,94.20
2018-03-22T10:42:46.809Z,94.60
2018-03-22T10:45:15.876Z,94.40
2018-03-22T10:47:45.219Z,94.50
2018-03-22T10:50:14.814Z,94.90
2018-03-22T10:52:44.478Z,94.80
2018-03-22T10:55:13.937Z,95.00
2018-03-22T10:57:43.124Z,95.40
2018-03-22T11:00:14.210Z,95.60
2018-03-22T11:02:48.266Z,95.70
2018-03-22T11:05:23.249Z,95.70
2018-03-22T11:07:54.551Z,95.50
2018-03-22T11:10:29.638Z,96.10
2018-03-22T11:13:05.637Z,96.00
2018-03-22T11:15:53.502Z,96.40
2018-03-22T11:18:42.078Z,96.10
2018-03-22T11:21:49.524Z,96.30
2018-03-22T11:24:33.016Z,96.40
2018-03-22T11:27:31.124Z,96.50
2018-03-22T11:30:05.167Z,96.50
2018-03-22T11:32:42.017Z,96.70
2018-03-22T11:35:20.698Z,96.70
2018-03-22T11:38:41.376Z,96.80
2018-03-22T11:51:21.695Z,96.90
2018-03-22T11:53:56.332Z,96.90
2018-03-22T11:56:43.748Z,96.90
2018-03-22T11:59:25.717Z,97.00
2018-03-22T12:02:10.231Z,96.80
2018-03-22T12:04:41.270Z,96.80
2018-03-22T12:07:42.670Z,96.60
2018-03-22T12:10:41.405Z,96.60
2018-03-22T12:16:31.446Z,96.70
2018-03-22T12:19:02.084Z,96.10
2018-03-22T12:21:30.975Z,96.10
2018-03-22T12:24:00.111Z,96.10
2018-03-22T12:26:29.798Z,95.90
2018-03-22T12:28:58.787Z,95.90
2018-03-22T12:31:27.861Z,96.00
2018-03-22T12:33:57.062Z,96.00
2018-03-22T12:36:25.937Z,95.80
2018-03-22T12:38:55.301Z,95.60
2018-03-22T12:41:25.402Z,95.10
2018-03-22T12:43:54.507Z,95.10
2018-03-22T12:46:23.406Z,95.00
2018-03-22T12:48:52.954Z,95.20
2018-03-22T12:51:23.060Z,95.20
2018-03-22T12:53:52.191Z,95.20
2018-03-22T12:56:21.275Z,95.70
2018-03-22T12:58:50.241Z,96.00
2018-03-22T13:01:19.060Z,96.00
2018-03-22T13:03:48.722Z,96.10
2018-03-22T13:06:18.557Z,96.10
2018-03-22T13:08:47.809Z,96.10
2018-03-22T13:11:31.003Z,96.00
2018-03-22T13:14:00.547Z,96.10
2018-03-22T13:16:30.545Z,96.20
2018-03-22T13:18:59.499Z,96.20
2018-03-22T13:21:28.624Z,96.10
2018-03-22T13:23:57.588Z,96.40
2018-03-22T13:26:26.740Z,96.20
2018-03-22T13:28:56.463Z,96.30
2018-03-22T13:31:25.830Z,96.30
2018-03-22T13:33:55.273Z,96.10
2018-03-22T13:36:25.370Z,96.10
2018-03-22T13:38:54.435Z,96.10
2018-03-22T13:41:23.504Z,96.10
2018-03-22T13:43:52.563Z,96.20
2018-03-22T13:46:22.786Z,96.20
2018-03-22T13:48:52.563Z,96.20
2018-03-22T13:51:23.250Z,95.90
2018-03-22T13:53:52.752Z,95.90
2018-03-22T13:56:22.349Z,95.90
2018-03-22T13:58:51.871Z,96.00
2018-03-22T14:01:20.812Z,96.10
2018-03-22T14:03:50.400Z,96.50
2018-03-22T14:06:19.278Z,96.50
2018-03-22T14:08:49.617Z,96.60
2018-03-22T14:11:18.361Z,96.60
2018-03-22T14:13:47.238Z,96.60
2018-03-22T14:16:17.248Z,96.70
2018-03-22T14:18:47.261Z,97.00
2018-03-22T14:21:17.533Z,96.90
2018-03-22T14:23:46.595Z,96.90
2018-03-22T14:26:16.325Z,96.90
2018-03-22T14:28:45.373Z,96.60
2018-03-22T14:31:15.112Z,96.60
2018-03-22T14:33:44.905Z,96.60
2018-03-22T14:36:14.609Z,96.50
2018-03-22T14:38:44.613Z,96.70
2018-03-22T14:41:13.436Z,96.70
2018-03-22T14:43:42.265Z,96.80
2018-03-22T14:46:11.656Z,97.10
2018-03-22T14:48:40.499Z,96.70
2018-03-22T14:51:10.129Z,96.40
2018-03-22T14:53:39.055Z,96.40
2018-03-22T14:56:08.005Z,96.10
2018-03-22T14:58:37.185Z,95.90
2018-03-22T15:01:06.240Z,96.10
2018-03-22T15:03:35.963Z,96.10
2018-03-22T15:06:05.281Z,96.10
2018-03-22T15:08:35.031Z,96.10
2018-03-22T15:11:04.395Z,96.10
2018-03-22T15:13:33.922Z,96.10
2018-03-22T15:16:03.491Z,96.10
2018-03-22T15:18:32.579Z,96.20
2018-03-22T15:21:01.484Z,95.80
2018-03-22T15:23:31.478Z,96.40
2018-03-22T15:26:02.062Z,96.40
2018-03-22T15:28:32.503Z,96.30
2018-03-22T15:31:03.238Z,95.90
2018-03-22T15:33:32.240Z,95.90
2018-03-22T15:36:01.219Z,96.00
2018-03-22T15:38:30.132Z,96.00
2018-03-22T15:40:58.891Z,96.10
2018-03-22T15:43:28.297Z,96.20
2018-03-22T15:45:57.077Z,96.30
2018-03-22T15:48:26.229Z,96.10
2018-03-22T15:50:55.653Z,96.10
2018-03-22T15:53:24.930Z,96.10
2018-03-22T15:55:54.484Z,96.20
2018-03-22T15:58:23.273Z,96.30
2018-03-22T16:00:51.930Z,96.00
2018-03-22T16:03:20.651Z,96.00
2018-03-22T16:05:49.684Z,96.20
2018-03-22T16:08:18.575Z,96.20
2018-03-22T16:10:47.506Z,96.30
2018-03-22T16:13:16.269Z,96.20
2018-03-22T16:15:45.854Z,96.10
2018-03-22T16:18:14.683Z,96.10
2018-03-22T16:20:43.395Z,96.10
2018-03-22T16:23:12.257Z,96.10
2018-03-22T16:25:41.111Z,96.20
2018-03-22T16:28:10.102Z,96.20
2018-03-22T16:30:39.166Z,96.10
2018-03-22T16:33:07.951Z,96.00
2018-03-22T16:35:36.698Z,96.20
2018-03-22T16:38:06.649Z,96.10
2018-03-22T16:40:35.428Z,96.10
2018-03-22T16:43:04.770Z,96.20
2018-03-22T16:45:33.611Z,96.10
2018-03-22T16:48:02.537Z,96.20
2018-03-22T16:50:31.575Z,96.20
2018-03-22T16:53:01.275Z,96.40
2018-03-22T16:55:30.964Z,96.50
2018-03-22T16:58:00.660Z,96.50
2018-03-22T17:00:29.426Z,96.40
2018-03-22T17:02:58.449Z,96.40
2018-03-22T17:05:27.293Z,96.50
2018-03-22T17:07:56.208Z,96.60
2018-03-22T17:10:25.194Z,96.50
2018-03-22T17:12:54.068Z,96.50
2018-03-22T17:15:23.049Z,96.50
2018-03-22T17:21:14.486Z,96.70
2018-03-22T17:23:43.985Z,96.60
2018-03-22T17:26:13.839Z,96.70
2018-03-22T17:28:42.773Z,96.70
2018-03-22T17:31:38.343Z,96.60
2018-03-22T17:34:07.159Z,96.60
2018-03-22T17:36:35.961Z,96.80
2018-03-22T17:39:05.954Z,96.80
2018-03-22T17:41:34.703Z,96.80
2018-03-22T17:44:04.174Z,96.90
2018-03-22T17:46:33.910Z,96.90
2018-03-22T17:49:02.941Z,96.90
2018-03-22T17:51:31.807Z,97.00
2018-03-22T17:54:00.547Z,97.10
2018-03-22T17:56:29.388Z,97.10
2018-03-22T17:58:58.972Z,97.00
2018-03-22T18:01:28.467Z,97.10
2018-03-22T18:03:58.240Z,97.30
2018-03-22T18:06:27.143Z,97.30
2018-03-22T18:08:55.920Z,97.30
2018-03-22T18:11:25.103Z,97.20
2018-03-22T18:13:54.421Z,97.20
2018-03-22T18:16:23.519Z,97.20
2018-03-22T18:18:52.252Z,97.30
2018-03-22T18:21:21.000Z,97.40
2018-03-22T18:23:49.777Z,97.30
2018-03-22T18:26:18.566Z,97.20
2018-03-22T18:28:47.675Z,97.30
2018-03-22T18:31:17.331Z,97.30
2018-03-22T18:33:46.030Z,97.30
2018-03-22T18:36:14.906Z,97.30
2018-03-22T18:38:43.891Z,97.60
2018-03-22T18:41:12.593Z,97.30
2018-03-22T18:43:41.273Z,97.40
2018-03-22T18:46:10.064Z,97.20
2018-03-22T18:48:38.850Z,97.20
2018-03-22T19:07:56.328Z,96.20
2018-03-22T19:10:25.998Z,96.30
2018-03-22T19:12:54.903Z,96.20
2018-03-22T19:15:23.837Z,96.30
2018-03-22T19:17:52.671Z,96.20
2018-03-22T19:20:23.302Z,96.20
2018-03-22T19:22:52.066Z,96.20
2018-03-22T19:25:21.241Z,96.30
2018-03-22T19:27:49.939Z,96.40
2018-03-22T19:30:20.832Z,96.40
2018-03-22T19:32:51.384Z,96.50
2018-03-22T19:35:22.530Z,96.50
2018-03-22T19:37:52.242Z,96.50
2018-03-22T19:40:21.087Z,96.50
2018-03-22T19:42:49.917Z,96.60
2018-03-22T19:45:18.692Z,96.60
2018-03-22T19:47:48.356Z,96.40
2018-03-22T19:50:17.155Z,96.40
2018-03-22T19:52:46.124Z,96.40
2018-03-22T19:55:15.033Z,96.30
2018-03-22T19:57:43.866Z,96.30
2018-03-22T20:00:13.459Z,96.30
2018-03-22T20:02:43.244Z,96.30
2018-03-22T20:05:13.396Z,96.30
2018-03-22T20:07:43.095Z,96.20
2018-03-22T20:10:11.903Z,96.10
2018-03-22T20:12:41.272Z,96.00
2018-03-22T20:15:10.103Z,96.00
2018-03-22T20:17:39.006Z,96.10
2018-03-22T20:20:08.424Z,96.10
2018-03-22T20:22:37.256Z,95.90
2018-03-22T20:25:06.606Z,95.90
2018-03-22T20:27:36.058Z,95.90
2018-03-22T20:30:05.453Z,95.90
2018-03-22T20:32:34.282Z,96.20
2018-03-22T20:35:03.261Z,95.90
2018-03-22T20:37:33.519Z,96.00
2018-03-22T20:40:02.435Z,96.00
2018-03-22T20:42:31.032Z,96.00
2018-03-22T20:45:00.577Z,96.00
2018-03-22T20:47:29.234Z,96.00
2018-03-22T20:49:58.821Z,95.90
2018-03-22T20:52:27.770Z,95.80
2018-03-22T20:54:56.451Z,95.80
2018-03-22T20:57:25.344Z,95.80
2018-03-22T20:59:54.340Z,95.80
2018-03-22T21:02:23.351Z,95.70
2018-03-22T21:04:52.016Z,95.80
2018-03-22T21:07:20.949Z,95.80
2018-03-22T21:09:49.699Z,95.60
2018-03-22T21:12:19.533Z,95.80
2018-03-22T21:14:49.113Z,95.80
2018-03-22T21:17:18.603Z,95.80
2018-03-22T21:19:47.610Z,95.70
2018-03-22T21:22:16.377Z,95.70
2018-03-22T21:24:45.860Z,95.70
2018-03-22T21:27:14.614Z,95.70
2018-03-22T21:29:43.801Z,95.70
2018-03-22T21:32:12.922Z,95.80
2018-03-22T21:34:42.557Z,95.80
2018-03-22T21:37:12.284Z,95.90
2018-03-22T21:39:41.247Z,95.90
2018-03-22T21:42:10.885Z,96.30
2018-03-22T21:44:40.746Z,96.00
2018-03-22T21:47:18.358Z,96.10
2018-03-22T21:49:47.572Z,96.10
2018-03-22T21:52:27.625Z,96.10
2018-03-22T21:54:57.339Z,96.10
2018-03-22T21:57:27.534Z,96.10
2018-03-22T21:59:56.979Z,96.10
2018-03-22T22:02:25.897Z,96.10
2018-03-22T22:04:54.794Z,96.10
2018-03-22T22:07:23.918Z,96.10
2018-03-22T22:09:53.709Z,96.20
2018-03-22T22:12:23.565Z,96.20
2018-03-22T22:14:52.467Z,96.30
2018-03-22T22:17:22.118Z,96.30
2018-03-22T22:19:51.123Z,96.30
2018-03-22T22:22:19.930Z,96.30
2018-03-22T22:24:49.615Z,96.40
2018-03-22T22:27:18.537Z,96.30
2018-03-22T22:29:47.876Z,96.40
2018-03-22T22:32:17.320Z,96.40
2018-03-22T22:34:46.149Z,96.50
2018-03-22T22:37:15.045Z,96.50
2018-03-22T22:39:44.043Z,96.50
2018-03-22T22:42:13.791Z,96.60
2018-03-22T22:44:43.420Z,96.60
2018-03-22T22:47:13.141Z,96.60
2018-03-22T22:49:42.751Z,96.60
2018-03-22T22:52:11.930Z,96.60
2018-03-22T22:54:40.905Z,96.60
2018-03-22T22:57:11.622Z,96.50
2018-03-22T22:59:41.016Z,96.70
2018-03-22T23:02:11.700Z,96.70
2018-03-22T23:04:40.926Z,96.70
2018-03-22T23:07:10.130Z,96.80
2018-03-22T23:09:39.411Z,96.80
2018-03-22T23:12:09.984Z,96.70
2018-03-22T23:14:39.738Z,96.70
2018-03-22T23:17:08.964Z,96.70
2018-03-22T23:19:37.989Z,96.70
2018-03-22T23:22:07.494Z,96.70
2018-03-22T23:24:36.678Z,97.00
2018-03-22T23:27:05.999Z,96.70
2018-03-22T23:29:36.383Z,96.60
2018-03-22T23:32:05.844Z,96.60
2018-03-22T23:34:36.468Z,96.70
2018-03-22T23:37:06.644Z,96.70
2018-03-22T23:39:35.681Z,96.50
2018-03-22T23:42:05.053Z,96.60
2018-03-22T23:44:34.880Z,96.70
2018-03-22T23:47:04.945Z,96.70
2018-03-22T23:49:34.067Z,96.70
2018-03-22T23:52:04.140Z,96.80
2018-03-22T23:54:34.150Z,96.80
2018-03-22T23:57:04.764Z,96.80
2018-03-22T23:59:35.215Z,96.80
